Time;durP1;ratioP1;P1;durP2;ratioP2;P2;SDS_P1;SDS_P2;PMS_P1;PMS_P2;Temp;Humidity;BMP_temperature;BMP_pressure;BME280_temperature;BME280_humidity;BME280_pressure;Samples;Min_cycle;Max_cycle;Signal;HPM_P1;HPM_P2
2022/10/30 00:00:38;;;;;;;2.10;0.75;;;;;;;20.36;52.41;101614.50;16121817;19;129470;-45
2022/10/30 00:06:03;;;;;;;1.27;0.80;;;;;;;20.36;52.47;101625.63;16123036;19;130877;-42
2022/10/30 00:11:25;;;;;;;1.37;0.80;;;;;;;20.35;52.57;101614.72;16122305;19;129712;-42
2022/10/30 00:16:46;;;;;;;1.85;0.90;;;;;;;20.35;52.17;101611.94;16124939;19;129911;-42
2022/10/30 00:22:09;;;;;;;1.15;0.90;;;;;;;20.34;52.17;101599.13;16135434;19;129169;-43
2022/10/30 00:27:30;;;;;;;1.63;0.88;;;;;;;20.32;52.55;101602.16;16134419;19;129839;-42
2022/10/30 00:32:52;;;;;;;2.35;0.60;;;;;;;20.32;52.55;101595.75;16134043;19;129526;-42
2022/10/30 00:38:14;;;;;;;0.90;0.73;;;;;;;20.31;52.33;101594.91;16134640;19;129495;-42
2022/10/30 00:43:40;;;;;;;4.30;0.82;;;;;;;20.31;52.09;101594.91;16133088;19;129150;-46
2022/10/30 00:49:12;;;;;;;0.95;0.80;;;;;;;20.32;52.47;101587.41;16133905;19;132836;-42
2022/10/30 00:54:35;;;;;;;1.02;0.77;;;;;;;20.29;52.52;101586.84;16132506;19;129455;-42
2022/10/30 00:59:57;;;;;;;1.33;0.68;;;;;;;20.28;52.10;101590.69;16133832;19;129573;-42
2022/10/30 01:05:22;;;;;;;1.52;0.68;;;;;;;20.28;52.27;101589.84;16128696;19;130071;-42
2022/10/30 01:10:45;;;;;;;0.73;0.60;;;;;;;20.27;52.07;101594.56;16134000;19;129892;-43
2022/10/30 01:16:44;;;;;;;1.05;0.60;;;;;;;20.28;52.38;101590.69;16131284;19;130302;-44
2022/10/30 01:22:17;;;;;;;0.95;0.60;;;;;;;20.27;52.36;101597.34;16130865;19;129613;-42
2022/10/30 01:27:50;;;;;;;1.50;0.70;;;;;;;20.27;52.40;101604.81;16128223;19;129142;-42
2022/10/30 01:33:31;;;;;;;0.90;0.60;;;;;;;20.26;52.44;101612.31;16131436;19;129430;-43
2022/10/30 01:38:57;;;;;;;0.93;0.70;;;;;;;20.24;52.23;101613.66;16129401;19;130178;-41
2022/10/30 01:44:30;;;;;;;;;;;;;;;20.19;52.43;101617.13;16129067;19;129100;-43
2022/10/30 01:50:10;;;;;;;0.63;0.50;;;;;;;20.22;52.39;101613.03;16130261;19;130271;-43
2022/10/30 01:55:43;;;;;;;1.55;0.77;;;;;;;20.22;52.21;101622.22;16127589;19;129295;-42
2022/10/30 02:01:05;;;;;;;1.30;0.57;;;;;;;20.19;51.97;101617.13;16129271;19;130436;-43
2022/10/30 02:06:27;;;;;;;0.75;0.75;;;;;;;20.20;52.34;101609.66;16127877;19;132155;-43
2022/10/30 02:11:50;;;;;;;1.30;0.60;;;;;;;20.19;52.10;101619.91;16125968;19;129851;-42
2022/10/30 02:17:12;;;;;;;1.75;0.65;;;;;;;20.19;52.20;101619.91;16132095;19;130036;-42
2022/10/30 02:22:34;;;;;;;0.98;0.60;;;;;;;20.19;52.28;101619.91;16125484;19;129723;-46
2022/10/30 02:27:55;;;;;;;1.33;0.68;;;;;;;20.18;52.35;101618.25;16125831;19;129332;-42
2022/10/30 02:33:17;;;;;;;0.75;0.50;;;;;;;20.18;52.22;101618.25;16125123;19;129340;-44
2022/10/30 02:38:59;;;;;;;1.30;0.65;;;;;;;20.18;52.14;101620.16;16124704;19;129914;-43
2022/10/30 02:44:20;;;;;;;0.47;0.47;;;;;;;20.17;52.34;101622.09;16126743;19;129751;-43
2022/10/30 02:49:42;;;;;;;1.17;0.60;;;;;;;20.16;51.94;101620.41;16125469;19;129247;-43
2022/10/30 02:55:04;;;;;;;0.63;0.52;;;;;;;20.16;52.29;101611.22;16126995;19;129250;-42
2022/10/30 03:00:26;;;;;;;1.10;0.50;;;;;;;20.15;52.09;101610.38;16125751;19;130210;-41
2022/10/30 03:05:48;;;;;;;1.27;0.60;;;;;;;20.13;52.09;101601.44;16126116;19;130320;-44
2022/10/30 03:11:14;;;;;;;1.48;0.55;;;;;;;20.14;52.27;101609.50;16124132;19;130256;-43
2022/10/30 03:16:36;;;;;;;0.75;0.40;;;;;;;20.14;52.03;101611.47;16121166;19;129612;-43
2022/10/30 03:21:57;;;;;;;2.65;0.70;;;;;;;20.13;52.06;101621.72;16126641;19;129298;-42
2022/10/30 03:27:19;;;;;;;0.82;0.68;;;;;;;20.12;51.92;101624.75;16123088;19;129438;-42
2022/10/30 03:32:41;;;;;;;1.48;0.60;;;;;;;20.12;51.79;101635.84;16122444;19;129400;-42
2022/10/30 03:38:02;;;;;;;0.68;0.60;;;;;;;20.11;51.95;101621.13;16122320;19;130084;-42
2022/10/30 03:43:24;;;;;;;0.65;0.52;;;;;;;20.12;52.01;101633.06;16119137;19;129582;-42
2022/10/30 03:48:49;;;;;;;0.93;0.50;;;;;;;20.12;51.83;101638.63;16123817;19;132196;-42
2022/10/30 03:54:11;;;;;;;0.90;0.40;;;;;;;20.10;52.12;101626.91;16132563;19;129430;-42
2022/10/30 03:59:32;;;;;;;0.82;0.60;;;;;;;20.09;51.97;101631.63;16135386;19;129525;-43
2022/10/30 04:04:54;;;;;;;2.05;0.40;;;;;;;20.09;51.71;101626.06;16134972;19;129471;-41
2022/10/30 04:10:16;;;;;;;1.38;0.55;;;;;;;20.09;51.70;101630.75;16137319;19;129981;-44
2022/10/30 04:15:45;;;;;;;0.70;0.43;;;;;;;20.08;51.91;101618.81;16137298;19;129119;-42
2022/10/30 04:21:12;;;;;;;1.27;0.65;;;;;;;20.08;51.89;101615.19;16134986;19;130147;-42
2022/10/30 04:26:34;;;;;;;1.23;0.60;;;;;;;20.07;51.61;101605.16;16133382;19;129504;-44
2022/10/30 04:31:56;;;;;;;0.98;0.50;;;;;;;20.07;51.93;101602.38;16134999;19;129526;-42
2022/10/30 04:37:18;;;;;;;1.35;0.50;;;;;;;20.05;51.97;101602.63;16134696;19;130067;-42
2022/10/30 04:42:40;;;;;;;0.80;0.60;;;;;;;20.05;51.62;101602.63;16134012;19;129876;-42
2022/10/30 04:48:13;;;;;;;1.27;0.40;;;;;;;20.06;52.06;101614.59;16133311;19;129356;-43
2022/10/30 04:53:35;;;;;;;0.50;0.45;;;;;;;20.05;52.06;101607.34;16133062;19;129536;-42
2022/10/30 04:58:57;;;;;;;1.10;0.50;;;;;;;20.06;52.11;101603.50;16135715;19;130381;-42
2022/10/30 05:04:19;;;;;;;1.98;0.95;;;;;;;20.03;51.66;101602.00;16132397;19;129476;-41
2022/10/30 05:09:41;;;;;;;2.47;0.70;;;;;;;20.04;51.85;101598.16;16136139;19;130086;-42
2022/10/30 05:15:03;;;;;;;1.23;0.60;;;;;;;20.04;52.03;101600.09;16133729;19;130212;-42
2022/10/30 05:20:25;;;;;;;0.93;0.50;;;;;;;20.03;51.95;101602.00;16133590;19;130319;-42
2022/10/30 05:25:46;;;;;;;1.05;0.60;;;;;;;20.02;51.77;101600.31;16135069;19;132495;-43
2022/10/30 05:31:08;;;;;;;0.57;0.40;;;;;;;20.02;51.79;101589.22;16129318;19;129873;-45
2022/10/30 05:36:29;;;;;;;3.63;1.00;;;;;;;20.01;51.79;101590.28;16132074;19;132908;-43
2022/10/30 05:41:51;;;;;;;0.70;0.40;;;;;;;20.02;51.78;101596.72;16133002;19;130080;-42
2022/10/30 05:47:13;;;;;;;0.60;0.40;;;;;;;20.01;51.75;101589.47;16129252;19;129385;-43
2022/10/30 05:52:35;;;;;;;1.23;0.60;;;;;;;19.99;51.53;101596.09;16127574;19;129591;-42
2022/10/30 05:58:01;;;;;;;1.10;0.68;;;;;;;19.98;51.71;101608.25;16130198;19;129623;-51
2022/10/30 06:03:23;;;;;;;1.15;0.50;;;;;;;19.97;51.75;101592.69;16129485;19;130177;-42
2022/10/30 06:08:44;;;;;;;1.05;0.73;;;;;;;19.98;51.50;101604.66;16131310;19;128880;-42
2022/10/30 06:14:06;;;;;;;1.23;0.68;;;;;;;19.97;51.64;101600.19;16127991;19;129818;-46
2022/10/30 06:19:28;;;;;;;1.00;0.60;;;;;;;19.97;51.35;101591.84;16127577;19;130114;-45
2022/10/30 06:24:49;;;;;;;1.52;0.63;;;;;;;19.95;51.42;101574.56;16128544;19;129708;-42
2022/10/30 06:30:11;;;;;;;0.50;0.40;;;;;;;19.94;51.73;101573.72;16127655;19;130348;-44
2022/10/30 06:35:33;;;;;;;1.25;0.77;;;;;;;19.95;51.73;101580.13;16126058;19;129458;-42
2022/10/30 06:40:55;;;;;;;0.88;0.60;;;;;;;19.93;51.34;101572.03;16125624;19;129680;-42
2022/10/30 06:46:16;;;;;;;1.50;0.50;;;;;;;19.92;51.56;101581.47;16125753;19;129726;-42
2022/10/30 06:51:38;;;;;;;0.77;0.40;;;;;;;19.95;51.80;101580.97;16122961;19;130171;-44
2022/10/30 06:57:00;;;;;;;1.13;0.50;;;;;;;20.01;51.60;101579.19;16123074;19;129483;-44
2022/10/30 07:02:22;;;;;;;1.50;0.68;;;;;;;20.07;51.63;101580.16;16122411;19;129627;-42
2022/10/30 07:07:44;;;;;;;1.38;0.65;;;;;;;20.11;51.19;101567.47;16123354;19;128972;-42
2022/10/30 07:13:06;;;;;;;0.90;0.47;;;;;;;20.19;51.02;101581.00;16124474;19;129254;-44
2022/10/30 07:18:27;;;;;;;1.25;0.88;;;;;;;20.39;50.63;101585.38;16122438;19;129587;-42
2022/10/30 07:23:49;;;;;;;1.90;0.90;;;;;;;20.75;49.86;101578.69;16121962;19;129628;-42
2022/10/30 07:29:11;;;;;;;4.50;1.23;;;;;;;20.94;49.44;101580.47;16135556;19;130143;-42
2022/10/30 07:34:33;;;;;;;5.68;1.45;;;;;;;21.37;48.71;101579.94;16136701;19;129520;-43
2022/10/30 07:39:54;;;;;;;4.78;1.45;;;;;;;21.27;49.31;101562.22;16136188;19;129271;-42
2022/10/30 07:45:16;;;;;;;3.10;1.67;;;;;;;21.21;49.38;101564.88;16132986;19;129634;-42
2022/10/30 07:50:42;;;;;;;3.03;1.30;;;;;;;21.55;48.45;101580.88;16137608;19;129796;-43
2022/10/30 07:56:04;;;;;;;6.50;1.58;;;;;;;21.62;48.49;101572.34;16137409;19;129539;-45
2022/10/30 08:01:26;;;;;;;2.72;1.23;;;;;;;21.71;48.08;101572.78;16135613;19;129911;-42
2022/10/30 08:06:47;;;;;;;3.33;1.55;;;;;;;21.60;48.68;101585.69;16135518;19;130092;-42
2022/10/30 08:12:09;;;;;;;2.30;1.40;;;;;;;21.70;48.44;101605.34;16134672;19;129169;-42
2022/10/30 08:17:31;;;;;;;5.10;1.30;;;;;;;21.45;48.75;101603.75;16134329;19;130058;-43
2022/10/30 08:22:55;;;;;;;2.90;1.38;;;;;;;21.87;48.04;101602.56;16136596;19;129830;-43
2022/10/30 08:28:19;;;;;;;4.77;1.60;;;;;;;22.35;47.35;101591.09;16132285;19;129728;-42
2022/10/30 08:33:41;;;;;;;8.05;1.70;;;;;;;21.83;47.73;101582.75;16136185;19;129978;-42
2022/10/30 08:39:03;;;;;;;13.35;1.90;;;;;;;21.52;48.50;101585.00;16130777;19;130336;-42
2022/10/30 08:44:25;;;;;;;4.38;1.42;;;;;;;21.28;48.98;101577.81;16133678;19;129866;-44
2022/10/30 08:49:47;;;;;;;8.10;2.40;;;;;;;21.09;49.15;101569.66;16133684;19;131049;-43
2022/10/30 08:55:08;;;;;;;15.48;1.67;;;;;;;20.97;49.17;101580.84;16130203;19;129575;-42
2022/10/30 09:00:30;;;;;;;11.55;2.33;;;;;;;20.89;49.10;101584.00;16133503;19;129675;-44
2022/10/30 09:05:52;;;;;;;9.35;2.15;;;;;;;20.81;49.50;101588.00;16131540;19;129471;-42
2022/10/30 09:11:16;;;;;;;7.57;1.75;;;;;;;20.73;49.85;101592.00;16130616;19;129687;-42
2022/10/30 09:16:37;;;;;;;8.07;2.30;;;;;;;20.69;49.83;101606.59;16131980;19;129618;-42
2022/10/30 09:21:59;;;;;;;5.80;1.60;;;;;;;20.67;50.21;101598.50;16132558;19;130567;-43
2022/10/30 09:27:21;;;;;;;7.00;1.80;;;;;;;20.66;49.87;101590.44;16132457;19;129404;-42
2022/10/30 09:32:43;;;;;;;8.00;2.30;;;;;;;20.63;50.16;101588.13;16132712;19;129543;-43
2022/10/30 09:38:04;;;;;;;6.85;1.73;;;;;;;20.60;50.01;101587.53;16132168;19;130864;-45
2022/10/30 09:43:57;;;;;;;4.22;1.50;;;;;;;20.60;50.04;101592.25;16129289;19;129488;-42
2022/10/30 09:49:40;;;;;;;5.38;1.60;;;;;;;20.58;50.07;101595.25;16126701;19;129928;-42
2022/10/30 09:55:21;;;;;;;5.07;1.85;;;;;;;20.56;50.35;101591.03;16131542;19;130189;-44
2022/10/30 10:00:49;;;;;;;5.53;1.40;;;;;;;20.55;50.37;101590.19;16132104;19;129781;-43
2022/10/30 10:06:17;;;;;;;6.38;1.60;;;;;;;20.55;50.22;101584.66;16129601;19;130268;-43
2022/10/30 10:11:44;;;;;;;5.72;1.40;;;;;;;20.55;50.57;101589.34;16128115;19;130096;-45
2022/10/30 10:17:26;;;;;;;2.95;1.33;;;;;;;20.54;50.26;101584.88;16213314;19;128970;-42
2022/10/30 10:22:49;;;;;;;3.95;1.35;;;;;;;20.55;50.50;101583.78;16202063;19;130320;-42
2022/10/30 10:28:32;;;;;;;4.47;1.50;;;;;;;20.53;50.63;101581.25;16201610;19;129749;-41
2022/10/30 10:34:22;;;;;;;2.03;1.40;;;;;;;20.54;50.64;101582.09;16203794;19;130619;-44
2022/10/30 10:39:58;;;;;;;3.85;1.50;;;;;;;20.55;50.44;101586.56;16200137;19;128962;-42
2022/10/30 10:45:20;;;;;;;;;;;;;;;20.50;50.67;101576.19;16201571;19;129532;-42
2022/10/30 10:51:00;;;;;;;11.05;1.60;;;;;;;20.55;50.95;101572.66;16200460;19;132686;-43
2022/10/30 10:56:28;;;;;;;5.05;1.92;;;;;;;20.52;50.65;101576.78;16197798;19;129675;-42
2022/10/30 11:02:28;;;;;;;13.25;2.20;;;;;;;20.52;51.00;101579.56;16200873;19;130187;-42
2022/10/30 11:07:51;;;;;;;8.15;1.90;;;;;;;20.49;50.55;101568.94;16197102;19;129675;-41
2022/10/30 11:13:13;;;;;;;7.63;2.20;;;;;;;20.49;50.56;101565.31;16198178;19;130110;-43
2022/10/30 11:18:35;;;;;;;11.10;1.90;;;;;;;20.49;50.91;101573.66;16200587;19;129628;-42
2022/10/30 11:23:57;;;;;;;6.90;2.28;;;;;;;20.48;50.53;101567.22;16191609;19;128961;-46
2022/10/30 11:29:24;;;;;;;6.97;2.40;;;;;;;20.49;50.70;101576.44;16134505;19;129862;-42
2022/10/30 11:34:58;;;;;;;6.65;2.30;;;;;;;20.45;50.33;101565.78;16135126;19;130430;-42
2022/10/30 11:40:22;;;;;;;11.05;2.45;;;;;;;20.45;50.47;101562.16;16134834;19;129625;-43
2022/10/30 11:45:44;;;;;;;10.32;2.22;;;;;;;20.44;50.76;101574.34;16136449;19;129406;-42
2022/10/30 11:51:06;;;;;;;8.85;2.40;;;;;;;20.43;50.71;101567.13;16134922;19;129319;-43
2022/10/30 11:56:29;;;;;;;7.90;2.25;;;;;;;20.43;50.57;101564.34;16133688;19;129630;-42
2022/10/30 12:02:02;;;;;;;4.18;2.00;;;;;;;20.44;50.27;101560.47;16135234;19;129653;-43
2022/10/30 12:07:28;;;;;;;8.15;2.17;;;;;;;20.42;50.23;101562.66;16133149;19;129525;-42
2022/10/30 12:12:50;;;;;;;6.35;1.98;;;;;;;20.42;50.51;101551.53;16133083;19;129331;-42
2022/10/30 12:18:21;;;;;;;7.70;2.50;;;;;;;20.43;50.54;101548.50;16133131;19;129470;-42
2022/10/30 12:23:51;;;;;;;6.20;1.92;;;;;;;20.43;50.43;101537.41;16135981;19;129742;-42
2022/10/30 12:29:16;;;;;;;8.10;2.30;;;;;;;20.43;50.80;101550.47;16132950;19;129668;-42
2022/10/30 12:34:56;;;;;;;5.00;2.10;;;;;;;20.44;50.74;101549.34;16131507;19;129403;-42
2022/10/30 12:40:34;;;;;;;7.10;2.33;;;;;;;20.42;50.66;101549.59;16130851;19;129659;-42
2022/10/30 12:46:20;;;;;;;6.13;1.70;;;;;;;20.42;50.65;101538.47;16130623;19;129234;-42
2022/10/30 12:51:51;;;;;;;8.57;2.40;;;;;;;20.41;50.99;101544.28;16129749;19;130604;-41
2022/10/30 12:57:20;;;;;;;6.85;2.10;;;;;;;20.40;50.83;101537.88;16128884;19;129934;-42
2022/10/30 13:03:16;;;;;;;5.95;1.58;;;;;;;20.41;50.59;101544.28;16128786;19;129915;-43
2022/10/30 13:09:05;;;;;;;5.63;1.88;;;;;;;20.40;50.79;101543.44;16127928;19;130373;-42
2022/10/30 13:14:41;;;;;;;5.57;1.92;;;;;;;20.39;50.88;101536.19;16126083;19;129119;-42
2022/10/30 13:20:13;;;;;;;7.70;1.67;;;;;;;20.39;50.66;101558.41;16131269;19;130468;-42
2022/10/30 13:26:08;;;;;;;4.35;1.92;;;;;;;20.40;50.82;101553.72;16124244;19;129353;-42
2022/10/30 13:31:39;;;;;;;6.13;1.92;;;;;;;20.39;50.67;101543.69;16128134;19;129102;-41
2022/10/30 13:37:17;;;;;;;10.10;2.47;;;;;;;20.42;50.61;101549.59;16127254;19;129465;-42
2022/10/30 13:43:14;;;;;;;11.25;2.38;;;;;;;20.41;50.63;101541.50;16126740;19;130021;-42
2022/10/30 13:48:56;;;;;;;7.30;2.13;;;;;;;20.42;50.89;101534.88;16120140;19;129666;-42
2022/10/30 13:54:23;;;;;;;7.05;2.15;;;;;;;20.40;50.86;101543.44;16123837;19;129629;-42
2022/10/30 14:00:26;;;;;;;8.50;2.20;;;;;;;20.42;50.68;101537.66;16126051;19;129025;-42
2022/10/30 14:05:52;;;;;;;10.77;3.05;;;;;;;20.41;51.13;101539.56;16114945;19;130028;-41
2022/10/30 14:11:14;;;;;;;6.70;2.20;;;;;;;20.41;51.31;101547.91;16114533;19;129510;-41
2022/10/30 14:16:42;;;;;;;7.13;2.17;;;;;;;20.41;50.78;101534.00;16112063;19;129256;-42
2022/10/30 14:22:03;;;;;;;7.40;2.15;;;;;;;20.40;51.11;101548.16;16115408;19;129969;-43
2022/10/30 14:27:27;;;;;;;4.57;2.15;;;;;;;20.40;50.80;101556.50;16113127;19;129592;-43
2022/10/30 14:32:50;;;;;;;7.05;2.95;;;;;;;20.39;50.80;101557.59;16112396;19;129726;-42
2022/10/30 14:38:12;;;;;;;6.75;2.53;;;;;;;20.39;50.82;101579.81;16115584;19;129252;-42
2022/10/30 14:44:15;;;;;;;8.68;2.60;;;;;;;20.37;51.27;101584.75;16119384;19;129941;-42
2022/10/30 14:49:52;;;;;;;4.45;2.00;;;;;;;20.36;51.08;101594.19;16112232;19;129547;-42
2022/10/30 14:55:14;;;;;;;4.18;2.15;;;;;;;20.35;51.33;101595.28;16108560;19;129747;-43
2022/10/30 15:00:35;;;;;;;7.05;2.40;;;;;;;20.35;51.12;101611.94;16114020;19;129494;-42
2022/10/30 15:06:05;;;;;;;4.95;2.13;;;;;;;20.34;50.95;101627.78;16125829;19;129687;-42
2022/10/30 15:11:44;;;;;;;3.72;2.20;;;;;;;20.34;51.16;101627.78;16126578;19;129179;-41
2022/10/30 15:17:25;;;;;;;4.57;2.00;;;;;;;20.33;50.88;101637.22;16126111;19;130063;-41
2022/10/30 15:22:59;;;;;;;6.03;1.70;;;;;;;20.32;51.10;101656.88;16131094;19;129562;-43
2022/10/30 15:28:25;;;;;;;6.30;1.85;;;;;;;20.29;51.12;101664.63;16133028;19;129884;-42
2022/10/30 15:33:47;;;;;;;4.00;1.60;;;;;;;20.29;50.97;101669.31;16133853;19;130323;-41
2022/10/30 15:39:14;;;;;;;5.78;2.28;;;;;;;20.28;51.13;101685.16;16132803;19;129477;-42
2022/10/30 15:44:39;;;;;;;5.55;1.80;;;;;;;20.26;50.96;101692.88;16131487;19;129888;-43
2022/10/30 15:50:00;;;;;;;3.43;2.00;;;;;;;20.25;51.43;101685.63;16134172;19;129475;-42
2022/10/30 15:55:30;;;;;;;3.90;1.80;;;;;;;20.26;50.96;101695.66;16132015;19;129837;-42
2022/10/30 16:00:58;;;;;;;5.72;1.83;;;;;;;20.24;51.50;101688.66;16135154;19;129631;-41
2022/10/30 16:06:24;;;;;;;3.40;1.50;;;;;;;20.23;51.42;101714.75;16132346;19;129302;-43
2022/10/30 16:11:47;;;;;;;4.22;2.17;;;;;;;20.20;51.39;101713.28;16134807;19;129709;-47
2022/10/30 16:17:10;;;;;;;4.30;1.83;;;;;;;20.19;51.34;101702.41;16131368;19;130250;-45
2022/10/30 16:22:38;;;;;;;4.88;2.15;;;;;;;20.18;51.04;101712.69;16128230;19;130759;-41
2022/10/30 16:27:59;;;;;;;5.72;2.10;;;;;;;20.18;51.16;101707.13;16127512;19;129598;-38
2022/10/30 16:33:26;;;;;;;8.30;2.03;;;;;;;20.19;50.89;101717.13;16126524;19;130455;-43
2022/10/30 16:38:48;;;;;;;7.32;1.90;;;;;;;20.20;51.02;101709.66;16128420;19;129594;-42
2022/10/30 16:44:18;;;;;;;13.90;1.98;;;;;;;20.22;51.14;101718.63;16130302;19;129470;-41
2022/10/30 16:49:48;;;;;;;7.38;1.85;;;;;;;20.20;51.03;101715.22;16132082;19;130978;-41
2022/10/30 16:55:19;;;;;;;4.45;1.85;;;;;;;20.21;50.86;101719.69;16126103;19;129811;-42
2022/10/30 17:00:48;;;;;;;6.78;1.92;;;;;;;20.21;51.21;101723.31;16127853;19;129819;-42
2022/10/30 17:06:27;;;;;;;7.65;1.90;;;;;;;20.19;50.87;101736.59;16126859;19;129550;-41
2022/10/30 17:12:09;;;;;;;9.77;1.75;;;;;;;20.18;50.70;101754.38;16126949;19;130199;-44
2022/10/30 17:17:32;;;;;;;6.97;1.92;;;;;;;20.15;50.83;101760.38;16125875;19;131577;-41
2022/10/30 17:23:12;;;;;;;4.63;1.65;;;;;;;20.15;50.80;101768.72;16126486;19;129852;-43
2022/10/30 17:28:35;;;;;;;6.45;2.00;;;;;;;20.12;50.43;101774.75;16123558;19;129453;-41
2022/10/30 17:34:19;;;;;;;5.70;1.85;;;;;;;20.13;50.56;101787.56;16128051;19;129489;-42
2022/10/30 17:39:41;;;;;;;6.95;1.58;;;;;;;20.11;50.35;101786.94;16125099;19;130473;-41
2022/10/30 17:45:05;;;;;;;4.45;1.40;;;;;;;20.10;50.33;101799.13;16123640;19;130121;-43
2022/10/30 17:50:27;;;;;;;4.60;1.47;;;;;;;20.10;50.25;101804.69;16122819;19;131184;-43
2022/10/30 17:55:57;;;;;;;6.13;1.98;;;;;;;20.10;50.46;101822.22;16123926;19;129717;-42
2022/10/30 18:01:24;;;;;;;3.40;1.42;;;;;;;20.10;50.32;101827.78;16124124;19;129597;-45
2022/10/30 18:06:46;;;;;;;5.78;2.20;;;;;;;20.09;50.69;101833.53;16121134;19;129599;-41
2022/10/30 18:12:15;;;;;;;15.82;4.05;;;;;;;20.09;50.72;101831.63;16121420;19;130445;-45
2022/10/30 18:17:37;;;;;;;16.25;5.85;;;;;;;20.11;50.82;101834.16;16119432;19;133930;-41
2022/10/30 18:22:59;;;;;;;12.10;5.28;;;;;;;20.11;50.49;101839.72;16121497;19;129673;-41
2022/10/30 18:28:21;;;;;;;11.68;6.15;;;;;;;20.12;50.83;101847.81;16119652;19;133653;-42
2022/10/30 18:33:43;;;;;;;16.35;6.65;;;;;;;20.13;50.78;101854.22;16119043;19;129337;-42
2022/10/30 18:39:05;;;;;;;16.00;7.13;;;;;;;20.13;50.79;101870.91;16134234;19;130161;-43
2022/10/30 18:44:27;;;;;;;38.63;23.25;;;;;;;20.13;50.81;101871.72;16137784;19;133297;-42
2022/10/30 18:49:48;;;;;;;26.65;18.48;;;;;;;20.14;50.57;101872.59;16137379;19;129547;-41
2022/10/30 18:55:18;;;;;;;53.70;17.88;;;;;;;20.13;50.83;101863.41;16137007;19;129758;-42
2022/10/30 19:00:40;;;;;;;33.72;23.25;;;;;;;20.15;50.61;101874.28;16135930;19;129833;-43
2022/10/30 19:06:22;;;;;;;35.33;19.40;;;;;;;20.20;51.18;101877.19;16135566;19;129844;-41
2022/10/30 19:11:44;;;;;;;27.50;17.80;;;;;;;20.37;50.86;101884.91;16134322;19;130559;-43
2022/10/30 19:17:06;;;;;;;31.38;22.83;;;;;;;20.54;50.85;101894.28;16133777;19;130626;-41
2022/10/30 19:22:28;;;;;;;37.22;23.55;;;;;;;20.70;50.50;101895.53;16131276;19;129695;-40
2022/10/30 19:27:50;;;;;;;36.63;21.83;;;;;;;20.82;50.47;101878.91;16133373;19;129505;-42
2022/10/30 19:33:12;;;;;;;33.70;19.88;;;;;;;20.87;50.05;101879.06;16132352;19;129655;-40
2022/10/30 19:38:33;;;;;;;28.77;18.25;;;;;;;20.90;49.97;101875.81;16129368;19;129217;-40
2022/10/30 19:43:55;;;;;;;29.77;15.82;;;;;;;20.88;50.18;101877.97;16130991;19;129459;-41
2022/10/30 19:49:22;;;;;;;23.92;14.45;;;;;;;20.86;50.18;101869.00;16131109;19;129521;-43
2022/10/30 19:54:43;;;;;;;22.73;15.05;;;;;;;20.84;50.18;101870.34;16131824;19;130319;-43
2022/10/30 20:00:14;;;;;;;23.40;15.55;;;;;;;20.82;50.11;101887.25;16132334;19;130106;-42
2022/10/30 20:05:39;;;;;;;34.88;17.90;;;;;;;20.79;50.54;101884.97;16130152;19;130251;-41
2022/10/30 20:11:00;;;;;;;30.73;18.37;;;;;;;20.79;50.99;101895.22;16129804;19;129537;-40
2022/10/30 20:16:22;;;;;;;32.42;18.50;;;;;;;20.77;50.99;101892.69;16129644;19;129309;-41
2022/10/30 20:21:44;;;;;;;28.30;18.20;;;;;;;20.75;51.42;101894.84;16129896;19;129428;-39
2022/10/30 20:27:06;;;;;;;30.92;19.85;;;;;;;20.75;51.46;101900.41;16130138;19;129862;-40
2022/10/30 20:32:27;;;;;;;45.63;18.83;;;;;;;20.73;51.53;101913.69;16127213;19;129687;-40
2022/10/30 20:37:58;;;;;;;45.45;17.33;;;;;;;20.73;51.46;101908.97;16129085;19;129762;-40
2022/10/30 20:43:26;;;;;;;40.78;17.33;;;;;;;20.73;51.74;101924.81;16126855;19;130034;-40
2022/10/30 20:48:48;;;;;;;37.30;16.80;;;;;;;20.72;51.53;101932.31;16128778;19;129713;-41
2022/10/30 20:54:09;;;;;;;29.27;14.93;;;;;;;20.72;52.01;101942.56;16129586;19;129867;-41
2022/10/30 20:59:31;;;;;;;31.27;15.10;;;;;;;20.71;52.21;101952.00;16124028;19;130595;-43
2022/10/30 21:04:53;;;;;;;45.05;14.95;;;;;;;20.69;52.32;101941.13;16125480;19;129457;-42
2022/10/30 21:10:14;;;;;;;25.00;13.48;;;;;;;20.68;52.12;101944.13;16127763;19;129475;-40
2022/10/30 21:15:38;;;;;;;25.38;12.63;;;;;;;20.67;52.08;101954.41;16126753;19;129335;-41
2022/10/30 21:21:01;;;;;;;28.30;12.07;;;;;;;20.67;52.28;101959.13;16124281;19;130049;-41
2022/10/30 21:26:23;;;;;;;26.70;13.00;;;;;;;20.66;52.40;101963.81;16125231;19;129165;-40
2022/10/30 21:31:45;;;;;;;23.60;11.50;;;;;;;20.66;52.44;101968.56;16126351;19;130002;-41
2022/10/30 21:37:07;;;;;;;31.42;11.70;;;;;;;20.66;52.87;101983.28;16123188;19;132077;-41
2022/10/30 21:42:28;;;;;;;23.15;10.60;;;;;;;20.65;53.00;101981.59;16123678;19;130613;-41
2022/10/30 21:47:51;;;;;;;20.33;10.48;;;;;;;20.64;53.01;101982.66;16123862;19;129812;-41
2022/10/30 21:53:12;;;;;;;17.73;9.43;;;;;;;20.64;52.79;101996.56;16122279;19;129480;-41
2022/10/30 21:58:34;;;;;;;33.38;12.93;;;;;;;20.64;52.74;101992.97;16120331;19;129457;-41
2022/10/30 22:04:01;;;;;;;31.15;10.60;;;;;;;20.63;52.69;101985.69;16125727;19;130282;-41
2022/10/30 22:09:22;;;;;;;23.33;10.00;;;;;;;20.57;52.58;101977.19;16120971;19;130594;-40
2022/10/30 22:14:44;;;;;;;24.67;9.82;;;;;;;20.55;52.92;101987.72;16123255;19;129946;-41
2022/10/30 22:20:06;;;;;;;20.05;9.20;;;;;;;20.52;52.89;101992.88;16120057;19;130546;-39
2022/10/30 22:25:28;;;;;;;23.58;8.73;;;;;;;20.49;52.83;101993.38;16121343;19;129597;-40
2022/10/30 22:30:50;;;;;;;18.58;7.70;;;;;;;20.45;52.58;101990.19;16121386;19;129866;-41
2022/10/30 22:36:18;;;;;;;19.48;7.35;;;;;;;20.43;52.79;101992.38;16122008;19;130574;-42
2022/10/30 22:41:41;;;;;;;16.73;7.03;;;;;;;20.40;52.62;101995.59;16124334;19;130126;-40
2022/10/30 22:47:02;;;;;;;14.95;6.57;;;;;;;20.38;52.33;102001.38;16122933;19;130220;-41
2022/10/30 22:52:24;;;;;;;16.65;6.03;;;;;;;20.37;52.50;102004.41;16121076;19;129525;-45
2022/10/30 22:57:46;;;;;;;13.43;6.03;;;;;;;20.36;52.29;101997.13;16122170;19;130140;-39
2022/10/30 23:03:07;;;;;;;15.93;4.95;;;;;;;20.34;52.37;101997.38;16119749;19;129608;-40
2022/10/30 23:08:29;;;;;;;13.82;4.50;;;;;;;20.33;52.43;102005.94;16118474;19;129650;-41
2022/10/30 23:13:51;;;;;;;9.90;4.10;;;;;;;20.31;52.38;101994.22;16120372;19;129664;-40
2022/10/30 23:19:13;;;;;;;7.13;3.90;;;;;;;20.28;52.52;101990.81;16118916;19;129761;-42
2022/10/30 23:24:34;;;;;;;10.57;3.97;;;;;;;20.27;52.32;101989.13;16130961;19;130355;-40
2022/10/30 23:29:56;;;;;;;8.57;3.80;;;;;;;20.26;52.51;101990.22;16133213;19;129869;-42
2022/10/30 23:35:18;;;;;;;8.65;3.75;;;;;;;20.24;52.15;101994.31;16131884;19;129836;-40
2022/10/30 23:40:40;;;;;;;6.75;2.90;;;;;;;20.23;52.22;102004.56;16133835;19;130043;-40
2022/10/30 23:46:02;;;;;;;4.40;2.38;;;;;;;20.22;52.07;102000.06;16133173;19;133191;-40
2022/10/30 23:51:24;;;;;;;6.35;2.95;;;;;;;20.22;52.23;101999.25;16132543;19;129799;-40
2022/10/30 23:56:45;;;;;;;5.65;2.42;;;;;;;20.21;52.39;101997.53;16132319;19;129596;-41
